Hovedside
METAR-TAF:

METAR-TAF

Lufthavner :

Batajnica, Serbia

breddegrad: 44-56-07N, lengdegrad: 020-15-27E, høyde over havet: 86 m

Gjeldene værobservasjon

Denne rapporten ble laget for 17 minutter siden, klokken 05:00 UTC
Vind 4 kt fra Sørvest, skiftende mellom Sør og Vest-sørvest
Temperatur 21°C
Luftfuktighet 94%
Trykk 1011 hPa
Sikt 10 km eller mer
ingen skyer under 1500 m og ingen bygeskyer

METAR: LYBT 220500Z 22004KT 190V250 CAVOK 21/20 Q1011 NOSIG

Tid: 07:17 (05:17 UTC)

Varsel

Denne rapporten ble laget for 6 timer og 17 minutter siden, klokken 23:00 UTC
Varsel gyldig fra 22. klokken 00 UTC til 22. klokken 24 UTC
Vind 4 kt fra Vest-nordvest
Sikt 10 km eller mer
ingen skyer under 1500 m og ingen bygeskyer

TAF: LYBT 212300Z 2200/2224 30004KT CAVOK TX32/2214Z TN19/2203Z

Værobservasjoner og værvarsel for over 4000 flyplasser (METAR- og TAF-rapporter).

Tilgjengelige stasjoner er representert av de røde og gule prikkene på kartet.

Hold musepekeren over prikken for å se navnet på stasjonen.

Klikk så for å se værobservasjoner og -varsler.

For å forandre kartet kan du klikke på den grønne knappen med svart kryss for å zoome inn, på den grønne knappen med strek for å zoome ut, eller på de grønne pilene for å se tilstøtende kart.


METAR-TAF: